Madison, SD

7:49 AM CST on December 13, 2017 (GMT -0600)
Madison Municipal

Weather History for KMDS - October, 2013

Change the Weather History Date:

Thursday, October 31, 2013

  Actual Average Record
Temperature  
Mean Temperature 36 °F -  
Max Temperature 41 °F 50 °F 64 °F (2016)
Min Temperature 32 °F 32 °F 14 °F (2014)
Degree Days  
Heating Degree Days 28    
Moisture  
Dew Point 36 °F    
Average Humidity 100    
Maximum Humidity 100    
Minimum Humidity 100    
Precipitation  
Precipitation 0.00 in - - ()
Sea Level Pressure  
Sea Level Pressure 29.56 in    
Wind  
Wind Speed 10 mph (WNW)    
Max Wind Speed 14 mph    
Max Gust Speed 18 mph    
Visibility 10 miles    
Events      
Averages and records for this station are not official NWS values.
T = Trace of Precipitation, MM = Missing Value Source: NWS Daily Summary

Daily Weather History Graph

Daily Weather History Graph

Search for Another Location

Airport or City:

Trip Planner

Search our weather history database for the weather conditions in past years. The results will help you decide how hot, cold, wet, or windy it might be!

Date:

Astronomy

Oct. 31, 2013 Rise Set
Actual Time 8:03 AM CDT 6:19 PM CDT
Civil Twilight 7:33 AM CDT 6:49 PM CDT
Nautical Twilight 6:59 AM CDT 7:23 PM CDT
Astronomical Twilight 6:26 AM CDT 7:56 PM CDT
Moon 4:48 AM CDT (10/31) 4:43 PM CDT (10/31)
Length of Visible Light 11h 15m
Length of Day
10h 15m
Waning Crescent, 10% of the Moon is Illuminated
Oct 31
Waning Crescent
Nov 3
New
Nov 9
First Quarter
Nov 17
Full
Nov 25
Last Quarter

Hourly Weather History & Observations

Time (CDT) Temp. Windchill Dew Point Humidity Pressure Visibility Wind Dir Wind Speed Gust Speed Precip Events Conditions
12:10 AM 33.8 °F 27.0 °F 33.8 °F 100% 29.73 in 2.0 mi WNW 8.1 mph - N/A   Overcast
12:30 AM 33.8 °F 26.4 °F 33.8 °F 100% 29.71 in 10.0 mi WNW 9.2 mph - N/A   Overcast
12:50 AM 33.8 °F 28.6 °F 33.8 °F 100% 29.70 in 10.0 mi West 5.8 mph - N/A   Overcast
1:10 AM 33.8 °F 27.7 °F 33.8 °F 100% 29.70 in 4.0 mi WNW 6.9 mph - N/A   Overcast
1:30 AM 33.8 °F 27.0 °F 33.8 °F 100% 29.69 in 10.0 mi WNW 8.1 mph - N/A   Overcast
1:50 AM 33.8 °F 27.7 °F 33.8 °F 100% 29.69 in 10.0 mi West 6.9 mph - N/A   Overcast
2:10 AM 33.8 °F 27.0 °F 33.8 °F 100% 29.68 in 10.0 mi WNW 8.1 mph - N/A   Overcast
2:30 AM 33.8 °F 27.0 °F 33.8 °F 100% 29.69 in 10.0 mi West 8.1 mph - N/A   Overcast
2:50 AM 33.8 °F 26.4 °F 33.8 °F 100% 29.69 in 10.0 mi WNW 9.2 mph - N/A   Overcast
3:10 AM 32.0 °F 23.0 °F 32.0 °F 100% 29.66 in 10.0 mi NW 11.5 mph - N/A   Overcast
3:30 AM 32.0 °F 23.0 °F 32.0 °F 100% 29.65 in 9.0 mi West 11.5 mph - N/A   Overcast
3:50 AM 32.0 °F 23.6 °F 32.0 °F 100% 29.64 in 10.0 mi WNW 10.4 mph - N/A   Overcast
4:10 AM 32.0 °F 22.5 °F 32.0 °F 100% 29.63 in 10.0 mi NW 12.7 mph - N/A   Overcast
4:30 AM 32.0 °F 22.5 °F 32.0 °F 100% 29.62 in 10.0 mi WNW 12.7 mph - N/A   Overcast
4:50 AM 32.0 °F 23.0 °F 32.0 °F 100% 29.61 in 10.0 mi WNW 11.5 mph - N/A   Overcast
5:10 AM 32.0 °F 24.2 °F 32.0 °F 100% 29.61 in 10.0 mi WNW 9.2 mph - N/A   Overcast
5:30 AM 32.0 °F 24.8 °F 32.0 °F 100% 29.63 in 10.0 mi West 8.1 mph - N/A   Overcast
5:50 AM 32.0 °F 23.0 °F 32.0 °F 100% 29.66 in 10.0 mi SW 11.5 mph - N/A   Overcast
6:10 AM 32.0 °F 27.5 °F 32.0 °F 100% 29.63 in 10.0 mi WNW 4.6 mph - N/A   Overcast
6:30 AM 32.0 °F 25.6 °F 32.0 °F 100% 29.64 in 10.0 mi WSW 6.9 mph - N/A   Overcast
6:50 AM 32.0 °F 23.0 °F 32.0 °F 100% 29.62 in 10.0 mi NW 11.5 mph - N/A   Overcast
7:10 AM 32.0 °F 23.6 °F 32.0 °F 100% 29.62 in 10.0 mi NW 10.4 mph - N/A   Overcast
7:30 AM 32.0 °F 25.6 °F 32.0 °F 100% 29.61 in 10.0 mi WNW 6.9 mph - N/A   Overcast
7:50 AM 32.0 °F 24.2 °F 32.0 °F 100% 29.60 in 10.0 mi WNW 9.2 mph - N/A   Overcast
8:10 AM 32.0 °F 22.1 °F 32.0 °F 100% 29.58 in 10.0 mi WNW 13.8 mph - N/A   Overcast
8:30 AM 32.0 °F 22.5 °F 32.0 °F 100% 29.58 in 10.0 mi WNW 12.7 mph 18.4 mph N/A   Overcast
8:50 AM 32.0 °F 22.1 °F 32.0 °F 100% 29.58 in 10.0 mi WNW 13.8 mph - N/A   Overcast
9:10 AM 33.8 °F 25.3 °F 33.8 °F 100% 29.58 in 10.0 mi WNW 11.5 mph - N/A   Overcast
9:30 AM 33.8 °F 25.3 °F 33.8 °F 100% 29.58 in 10.0 mi WNW 11.5 mph - N/A   Overcast
9:50 AM 35.6 °F 27.5 °F 35.6 °F 100% 29.57 in 10.0 mi WNW 11.5 mph - N/A   Overcast
10:10 AM 35.6 °F 27.1 °F 35.6 °F 100% 29.57 in 10.0 mi West 12.7 mph - N/A   Overcast
10:30 AM 35.6 °F 28.0 °F 35.6 °F 100% 29.56 in 10.0 mi West 10.4 mph - N/A   Overcast
10:50 AM 35.6 °F 28.0 °F 35.6 °F 100% 29.56 in 10.0 mi West 10.4 mph 16.1 mph N/A   Overcast
11:10 AM 35.6 °F 28.6 °F 35.6 °F 100% 29.55 in 10.0 mi West 9.2 mph - N/A   Overcast
11:30 AM 37.4 °F 29.8 °F 37.4 °F 100% 29.55 in 10.0 mi West 11.5 mph - N/A   Overcast
11:50 AM 37.4 °F 30.3 °F 37.4 °F 100% 29.54 in 10.0 mi West 10.4 mph - N/A   Overcast
12:10 PM 37.4 °F 29.8 °F 37.4 °F 100% 29.54 in 10.0 mi West 11.5 mph - N/A   Overcast
12:30 PM 37.4 °F 30.3 °F 37.4 °F 100% 29.53 in 10.0 mi West 10.4 mph - N/A   Overcast
12:50 PM 37.4 °F 30.3 °F 37.4 °F 100% 29.52 in 10.0 mi West 10.4 mph - N/A   Overcast
1:10 PM 37.4 °F 30.3 °F 37.4 °F 100% 29.51 in 10.0 mi West 10.4 mph - N/A   Overcast
1:30 PM 37.4 °F 30.3 °F 37.4 °F 100% 29.50 in 10.0 mi West 10.4 mph - N/A   Overcast
1:50 PM 39.2 °F 33.0 °F 39.2 °F 100% 29.50 in 10.0 mi West 9.2 mph - N/A   Overcast
2:10 PM 39.2 °F 31.2 °F 39.2 °F 100% 29.49 in 10.0 mi WNW 13.8 mph - N/A   Overcast
2:30 PM 39.2 °F 33.0 °F 39.2 °F 100% 29.48 in 10.0 mi WNW 9.2 mph - N/A   Overcast
2:50 PM 41.0 °F 34.7 °F 41.0 °F 100% 29.47 in 10.0 mi NW 10.4 mph - N/A   Overcast
3:10 PM 41.0 °F 34.7 °F 41.0 °F 100% 29.47 in 10.0 mi NW 10.4 mph - N/A   Overcast
3:30 PM 41.0 °F 33.5 °F 41.0 °F 100% 29.46 in 10.0 mi West 13.8 mph 18.4 mph N/A   Overcast
3:50 PM 41.0 °F 34.3 °F 41.0 °F 100% 29.46 in 10.0 mi WNW 11.5 mph - N/A   Overcast
4:10 PM 41.0 °F 34.3 °F 41.0 °F 100% 29.46 in 10.0 mi WNW 11.5 mph - N/A   Overcast
4:30 PM 41.0 °F 35.2 °F 41.0 °F 100% 29.46 in 10.0 mi NW 9.2 mph - N/A   Overcast
4:50 PM 41.0 °F 34.7 °F 41.0 °F 100% 29.47 in 10.0 mi WNW 10.4 mph - N/A   Overcast
5:10 PM 41.0 °F 34.3 °F 41.0 °F 100% 29.47 in 10.0 mi NW 11.5 mph - N/A   Overcast
5:30 PM 41.0 °F 35.2 °F 41.0 °F 100% 29.47 in 10.0 mi NW 9.2 mph - N/A   Overcast
5:50 PM 41.0 °F 35.8 °F 41.0 °F 100% 29.47 in 10.0 mi WNW 8.1 mph - N/A   Overcast
6:10 PM 41.0 °F 35.8 °F 41.0 °F 100% 29.47 in 10.0 mi WNW 8.1 mph - N/A   Overcast
6:30 PM 41.0 °F 35.2 °F 41.0 °F 100% 29.47 in 10.0 mi WNW 9.2 mph - N/A   Overcast
6:50 PM 41.0 °F 34.7 °F 41.0 °F 100% 29.48 in 10.0 mi WNW 10.4 mph - N/A   Overcast
7:10 PM 41.0 °F 34.3 °F 41.0 °F 100% 29.48 in 10.0 mi WNW 11.5 mph - N/A   Overcast
7:30 PM 39.2 °F 33.0 °F 39.2 °F 100% 29.48 in 10.0 mi NW 9.2 mph - N/A   Mostly Cloudy
7:50 PM 39.2 °F 33.6 °F 39.2 °F 100% 29.49 in 10.0 mi NW 8.1 mph - N/A   Overcast
8:10 PM 39.2 °F 33.6 °F 39.2 °F 100% 29.49 in 10.0 mi NW 8.1 mph - N/A   Overcast
8:30 PM 39.2 °F 33.6 °F 39.2 °F 100% 29.49 in 10.0 mi WNW 8.1 mph - N/A   Mostly Cloudy
8:50 PM 39.2 °F 33.0 °F 39.2 °F 100% 29.49 in 10.0 mi WNW 9.2 mph - N/A   Overcast
9:10 PM 39.2 °F 32.5 °F 39.2 °F 100% 29.49 in 10.0 mi WNW 10.4 mph - N/A   Overcast
9:30 PM 39.2 °F 32.0 °F 39.2 °F 100% 29.49 in 10.0 mi WNW 11.5 mph - N/A   Mostly Cloudy
9:50 PM 39.2 °F 31.6 °F 39.2 °F 100% 29.50 in 10.0 mi NW 12.7 mph - N/A   Partly Cloudy
10:10 PM 39.2 °F 32.0 °F 39.2 °F 100% 29.50 in 10.0 mi NW 11.5 mph - N/A   Clear
10:30 PM 39.2 °F 32.0 °F 39.2 °F 100% 29.50 in 10.0 mi NW 11.5 mph - N/A   Clear
10:50 PM 37.4 °F 29.3 °F 37.4 °F 100% 29.51 in 10.0 mi NW 12.7 mph - N/A   Clear
11:10 PM 37.4 °F 29.3 °F 37.4 °F 100% 29.52 in 10.0 mi NW 12.7 mph - N/A   Clear
11:30 PM 37.4 °F 29.8 °F 37.4 °F 100% 29.52 in 10.0 mi NW 11.5 mph - N/A   Clear
11:50 PM 37.4 °F 30.3 °F 37.4 °F 100% 29.52 in 10.0 mi NW 10.4 mph - N/A   Partly Cloudy